sensor_id;sensor_type;location;lat;lon;timestamp;pressure;altitude;pressure_sealevel;temperature;humidity
74474;BME280;62922;-6.168;106.796;2023-05-10T00:01:12;100913.47;;;31.67;65.88
74474;BME280;62922;-6.168;106.796;2023-05-10T00:03:38;100916.28;;;31.67;65.74
74474;BME280;62922;-6.168;106.796;2023-05-10T00:06:05;100920.28;;;31.66;65.37
74474;BME280;62922;-6.168;106.796;2023-05-10T00:08:30;100917.47;;;31.66;65.85
74474;BME280;62922;-6.168;106.796;2023-05-10T00:10:59;100922.28;;;31.65;66.07
74474;BME280;62922;-6.168;106.796;2023-05-10T00:13:25;100926.78;;;31.66;66.01
74474;BME280;62922;-6.168;106.796;2023-05-10T00:15:51;100925.94;;;31.66;65.92
74474;BME280;62922;-6.168;106.796;2023-05-10T00:18:17;100923.94;;;31.66;66.21
74474;BME280;62922;-6.168;106.796;2023-05-10T00:20:43;100926.78;;;31.66;65.90
74474;BME280;62922;-6.168;106.796;2023-05-10T00:23:11;100923.13;;;31.66;66.47
74474;BME280;62922;-6.168;106.796;2023-05-10T00:25:37;100926.09;;;31.69;66.13
74474;BME280;62922;-6.168;106.796;2023-05-10T00:28:03;100933.38;;;31.70;66.23
74474;BME280;62922;-6.168;106.796;2023-05-10T00:30:29;100939.00;;;31.70;66.24
74474;BME280;62922;-6.168;106.796;2023-05-10T00:32:55;100941.84;;;31.70;66.04
74474;BME280;62922;-6.168;106.796;2023-05-10T00:35:21;100934.56;;;31.69;66.12
74474;BME280;62922;-6.168;106.796;2023-05-10T00:37:49;100936.53;;;31.69;66.74
74474;BME280;62922;-6.168;106.796;2023-05-10T00:40:15;100948.31;;;31.71;66.95
74474;BME280;62922;-6.168;106.796;2023-05-10T00:42:41;100940.19;;;31.69;66.85
74474;BME280;62922;-6.168;106.796;2023-05-10T00:45:10;100943.50;;;31.71;66.15
74474;BME280;62922;-6.168;106.796;2023-05-10T00:47:36;100952.81;;;31.72;66.57
74474;BME280;62922;-6.168;106.796;2023-05-10T00:50:03;100948.47;;;31.74;67.86
74474;BME280;62922;-6.168;106.796;2023-05-10T00:52:30;100949.47;;;31.78;67.62
74474;BME280;62922;-6.168;106.796;2023-05-10T00:54:56;100949.97;;;31.80;68.22
74474;BME280;62922;-6.168;106.796;2023-05-10T00:57:22;100957.25;;;31.81;67.74
74474;BME280;62922;-6.168;106.796;2023-05-10T00:59:51;100959.28;;;31.81;67.54
74474;BME280;62922;-6.168;106.796;2023-05-10T01:02:17;100960.06;;;31.81;67.24
74474;BME280;62922;-6.168;106.796;2023-05-10T01:04:45;100953.63;;;31.81;67.21
74474;BME280;62922;-6.168;106.796;2023-05-10T01:07:11;100951.94;;;31.80;67.11
74474;BME280;62922;-6.168;106.796;2023-05-10T01:09:37;100954.44;;;31.81;67.41
74474;BME280;62922;-6.168;106.796;2023-05-10T01:12:06;100961.75;;;31.82;67.46
74474;BME280;62922;-6.168;106.796;2023-05-10T11:26:50;100792.09;;;33.61;61.90
74474;BME280;62922;-6.168;106.796;2023-05-10T11:29:18;100799.78;;;33.60;62.38
74474;BME280;62922;-6.168;106.796;2023-05-10T11:31:44;100802.63;;;33.60;62.17
74474;BME280;62922;-6.168;106.796;2023-05-10T11:36:42;100817.13;;;33.59;62.43
74474;BME280;62922;-6.168;106.796;2023-05-10T11:39:07;100828.78;;;33.57;61.97
74474;BME280;62922;-6.168;106.796;2023-05-10T11:41:36;100824.78;;;33.58;61.84
74474;BME280;62922;-6.168;106.796;2023-05-10T11:44:02;100824.31;;;33.56;61.84
74474;BME280;62922;-6.168;106.796;2023-05-10T11:46:28;100821.47;;;33.56;62.33
74474;BME280;62922;-6.168;106.796;2023-05-10T11:48:57;100829.13;;;33.56;62.32
74474;BME280;62922;-6.168;106.796;2023-05-10T11:51:25;100831.97;;;33.56;62.49
74474;BME280;62922;-6.168;106.796;2023-05-10T11:53:54;100837.63;;;33.56;62.06
74474;BME280;62922;-6.168;106.796;2023-05-10T11:56:23;100840.44;;;33.56;62.20
74474;BME280;62922;-6.168;106.796;2023-05-10T11:58:53;100853.78;;;33.55;62.03
74474;BME280;62922;-6.168;106.796;2023-05-10T12:01:20;100863.09;;;33.56;61.98
74474;BME280;62922;-6.168;106.796;2023-05-10T12:03:46;100873.59;;;33.55;62.47
74474;BME280;62922;-6.168;106.796;2023-05-10T12:06:12;100889.38;;;33.56;61.91
74474;BME280;62922;-6.168;106.796;2023-05-10T12:08:43;100897.88;;;33.56;62.10
74474;BME280;62922;-6.168;106.796;2023-05-10T12:11:09;100903.53;;;33.56;62.30
74474;BME280;62922;-6.168;106.796;2023-05-10T12:13:39;100901.06;;;33.55;62.48
74474;BME280;62922;-6.168;106.796;2023-05-10T12:18:34;100905.88;;;33.54;61.94
74474;BME280;62922;-6.168;106.796;2023-05-10T12:21:02;100907.88;;;33.53;62.64
74474;BME280;62922;-6.168;106.796;2023-05-10T12:23:29;100903.06;;;33.54;62.64
74474;BME280;62922;-6.168;106.796;2023-05-10T12:26:01;100909.06;;;33.53;62.42
74474;BME280;62922;-6.168;106.796;2023-05-10T12:28:29;100900.59;;;33.53;62.42
74474;BME280;62922;-6.168;106.796;2023-05-10T12:30:55;100908.22;;;33.52;62.55
74474;BME280;62922;-6.168;106.796;2023-05-10T12:33:22;100899.75;;;33.52;62.39
74474;BME280;62922;-6.168;106.796;2023-05-10T12:35:50;100902.94;;;33.50;63.09
74474;BME280;62922;-6.168;106.796;2023-05-10T12:40:45;100910.94;;;33.48;62.16
74474;BME280;62922;-6.168;106.796;2023-05-10T12:43:11;100910.09;;;33.48;62.22
74474;BME280;62922;-6.168;106.796;2023-05-10T12:45:37;100899.13;;;33.46;62.54
74474;BME280;62922;-6.168;106.796;2023-05-10T12:48:03;100896.31;;;33.46;62.34
74474;BME280;62922;-6.168;106.796;2023-05-10T12:50:29;100892.66;;;33.46;62.82
74474;BME280;62922;-6.168;106.796;2023-05-10T12:52:55;100900.31;;;33.45;62.10
74474;BME280;62922;-6.168;106.796;2023-05-10T12:55:21;100914.47;;;33.45;62.57
74474;BME280;62922;-6.168;106.796;2023-05-10T12:57:46;100918.44;;;33.44;62.58
74474;BME280;62922;-6.168;106.796;2023-05-10T13:00:15;100917.63;;;33.44;62.29
74474;BME280;62922;-6.168;106.796;2023-05-10T13:02:41;100926.91;;;33.44;62.68
74474;BME280;62922;-6.168;106.796;2023-05-10T13:05:07;100927.28;;;33.43;62.90
74474;BME280;62922;-6.168;106.796;2023-05-10T13:07:33;100929.25;;;33.42;62.93
74474;BME280;62922;-6.168;106.796;2023-05-10T13:09:58;100925.63;;;33.42;62.50
74474;BME280;62922;-6.168;106.796;2023-05-10T13:12:25;100927.63;;;33.41;62.91
74474;BME280;62922;-6.168;106.796;2023-05-10T13:14:50;100927.13;;;33.39;62.84
74474;BME280;62922;-6.168;106.796;2023-05-10T13:17:16;100925.16;;;33.40;62.50
74474;BME280;62922;-6.168;106.796;2023-05-10T13:19:42;100932.78;;;33.39;62.44
74474;BME280;62922;-6.168;106.796;2023-05-10T13:22:08;100928.31;;;33.38;63.20
74474;BME280;62922;-6.168;106.796;2023-05-10T13:24:34;100928.66;;;33.37;62.66
74474;BME280;62922;-6.168;106.796;2023-05-10T13:27:00;100932.66;;;33.36;63.02
74474;BME280;62922;-6.168;106.796;2023-05-10T13:29:26;100942.13;;;33.40;62.91
74474;BME280;62922;-6.168;106.796;2023-05-10T13:31:51;100941.63;;;33.38;62.72
74474;BME280;62922;-6.168;106.796;2023-05-10T13:34:17;100947.66;;;33.36;63.08
74474;BME280;62922;-6.168;106.796;2023-05-10T13:36:46;100943.16;;;33.35;62.85
74474;BME280;62922;-6.168;106.796;2023-05-10T13:39:12;100950.00;;;33.34;63.25
74474;BME280;62922;-6.168;106.796;2023-05-10T13:41:37;100956.81;;;33.33;63.51
74474;BME280;62922;-6.168;106.796;2023-05-10T13:44:03;100963.66;;;33.32;62.99
74474;BME280;62922;-6.168;106.796;2023-05-10T13:46:29;100975.81;;;33.33;63.07
74474;BME280;62922;-6.168;106.796;2023-05-10T13:48:56;100976.97;;;33.32;63.63
74474;BME280;62922;-6.168;106.796;2023-05-10T13:51:22;100986.63;;;33.31;63.05
74474;BME280;62922;-6.168;106.796;2023-05-10T13:53:51;100998.44;;;33.33;63.58
74474;BME280;62922;-6.168;106.796;2023-05-10T13:56:17;100990.63;;;33.30;63.34
74474;BME280;62922;-6.168;106.796;2023-05-10T13:58:43;101005.94;;;33.29;63.63
74474;BME280;62922;-6.168;106.796;2023-05-10T14:01:09;101007.09;;;33.28;63.51
74474;BME280;62922;-6.168;106.796;2023-05-10T14:03:35;101020.44;;;33.27;63.22
74474;BME280;62922;-6.168;106.796;2023-05-10T14:06:01;101023.59;;;33.26;63.29
74474;BME280;62922;-6.168;106.796;2023-05-10T14:08:27;101021.59;;;33.26;63.25
74474;BME280;62922;-6.168;106.796;2023-05-10T14:10:53;101025.63;;;33.25;63.60
74474;BME280;62922;-6.168;106.796;2023-05-10T14:13:21;101017.13;;;33.25;63.45
74474;BME280;62922;-6.168;106.796;2023-05-10T14:15:47;101025.97;;;33.24;63.98
74474;BME280;62922;-6.168;106.796;2023-05-10T14:18:13;101022.28;;;33.23;63.96
74474;BME280;62922;-6.168;106.796;2023-05-10T14:20:39;101027.97;;;33.23;64.09
74474;BME280;62922;-6.168;106.796;2023-05-10T14:23:05;101018.63;;;33.23;64.10
74474;BME280;62922;-6.168;106.796;2023-05-10T14:25:31;101029.09;;;33.22;64.17
74474;BME280;62922;-6.168;106.796;2023-05-10T14:27:57;101029.09;;;33.22;64.14
74474;BME280;62922;-6.168;106.796;2023-05-10T14:30:22;101020.94;;;33.29;63.68
74474;BME280;62922;-6.168;106.796;2023-05-10T14:32:48;101035.25;;;33.24;63.60
74474;BME280;62922;-6.168;106.796;2023-05-10T14:35:14;101022.66;;;33.22;64.16
74474;BME280;62922;-6.168;106.796;2023-05-10T14:37:40;101025.00;;;33.20;63.81
74474;BME280;62922;-6.168;106.796;2023-05-10T14:40:06;101020.47;;;33.19;63.91
74474;BME280;62922;-6.168;106.796;2023-05-10T14:42:33;101022.50;;;33.18;63.90
74474;BME280;62922;-6.168;106.796;2023-05-10T14:44:58;101021.66;;;33.18;64.40
74474;BME280;62922;-6.168;106.796;2023-05-10T14:47:24;101020.63;;;33.22;65.98
74474;BME280;62922;-6.168;106.796;2023-05-10T14:49:50;101016.56;;;33.32;65.92
74474;BME280;62922;-6.168;106.796;2023-05-10T14:52:16;101009.78;;;33.24;65.74
74474;BME280;62922;-6.168;106.796;2023-05-10T14:54:42;101008.50;;;33.22;66.05
74474;BME280;62922;-6.168;106.796;2023-05-10T14:57:08;101006.34;;;33.19;66.03
74474;BME280;62922;-6.168;106.796;2023-05-10T14:59:34;101015.66;;;33.19;65.40
74474;BME280;62922;-6.168;106.796;2023-05-10T15:02:00;101011.19;;;33.18;65.49
74474;BME280;62922;-6.168;106.796;2023-05-10T15:04:26;101009.53;;;33.17;65.64
74474;BME280;62922;-6.168;106.796;2023-05-10T15:06:52;101013.53;;;33.16;65.21
74474;BME280;62922;-6.168;106.796;2023-05-10T15:09:24;101015.53;;;33.16;65.59
74474;BME280;62922;-6.168;106.796;2023-05-10T15:11:50;101009.03;;;33.15;65.96
74474;BME280;62922;-6.168;106.796;2023-05-10T15:14:16;101003.53;;;33.19;65.31
74474;BME280;62922;-6.168;106.796;2023-05-10T15:16:42;101003.03;;;33.17;66.09
74474;BME280;62922;-6.168;106.796;2023-05-10T15:19:08;101001.38;;;33.16;66.02
74474;BME280;62922;-6.168;106.796;2023-05-10T15:21:33;100998.34;;;33.21;66.45
74474;BME280;62922;-6.168;106.796;2023-05-10T15:24:05;100995.88;;;33.19;66.46
74474;BME280;62922;-6.168;106.796;2023-05-10T15:26:31;100986.38;;;33.24;67.74
74474;BME280;62922;-6.168;106.796;2023-05-10T15:28:57;100989.34;;;33.27;68.53
74474;BME280;62922;-6.168;106.796;2023-05-10T15:31:23;100987.66;;;33.26;68.13
74474;BME280;62922;-6.168;106.796;2023-05-10T15:33:49;100980.00;;;33.27;68.32
74474;BME280;62922;-6.168;106.796;2023-05-10T15:36:15;100984.34;;;33.24;69.09
74474;BME280;62922;-6.168;106.796;2023-05-10T15:38:43;100980.53;;;33.20;68.81
74474;BME280;62922;-6.168;106.796;2023-05-10T15:41:12;100981.72;;;33.19;67.79
74474;BME280;62922;-6.168;106.796;2023-05-10T15:43:38;100981.25;;;33.17;68.53
74474;BME280;62922;-6.168;106.796;2023-05-10T15:46:04;100987.72;;;33.18;68.12
74474;BME280;62922;-6.168;106.796;2023-05-10T15:48:33;100999.41;;;33.16;68.03
74474;BME280;62922;-6.168;106.796;2023-05-10T15:50:59;100990.06;;;33.16;68.26
74474;BME280;62922;-6.168;106.796;2023-05-10T15:53:25;100994.91;;;33.15;68.10
74474;BME280;62922;-6.168;106.796;2023-05-10T15:55:51;100996.09;;;33.14;68.57
74474;BME280;62922;-6.168;106.796;2023-05-10T15:58:17;100993.59;;;33.13;68.40
74474;BME280;62922;-6.168;106.796;2023-05-10T16:00:43;100993.59;;;33.13;68.35
74474;BME280;62922;-6.168;106.796;2023-05-10T16:03:12;100994.75;;;33.12;67.84
74474;BME280;62922;-6.168;106.796;2023-05-10T16:05:37;100999.56;;;33.11;68.24
74474;BME280;62922;-6.168;106.796;2023-05-10T16:08:03;100997.94;;;33.10;67.63
74474;BME280;62922;-6.168;106.796;2023-05-10T16:10:31;100996.25;;;33.09;67.35
74474;BME280;62922;-6.168;106.796;2023-05-10T16:12:57;101005.59;;;33.10;68.04
74474;BME280;62922;-6.168;106.796;2023-05-10T16:15:23;101001.13;;;33.09;67.44
74474;BME280;62922;-6.168;106.796;2023-05-10T16:17:49;101001.13;;;33.09;67.34
74474;BME280;62922;-6.168;106.796;2023-05-10T16:20:15;101007.56;;;33.09;67.34
74474;BME280;62922;-6.168;106.796;2023-05-10T16:22:41;101005.94;;;33.08;67.75
74474;BME280;62922;-6.168;106.796;2023-05-10T16:25:08;101005.44;;;33.06;67.57
74474;BME280;62922;-6.168;106.796;2023-05-10T16:27:34;101000.97;;;33.05;67.29
74474;BME280;62922;-6.168;106.796;2023-05-10T16:30:00;101000.97;;;33.05;67.57
74474;BME280;62922;-6.168;106.796;2023-05-10T16:32:27;100994.47;;;33.05;67.37
74474;BME280;62922;-6.168;106.796;2023-05-10T16:34:57;100990.81;;;33.04;67.31
74474;BME280;62922;-6.168;106.796;2023-05-10T16:37:23;100996.47;;;33.04;67.21
74474;BME280;62922;-6.168;106.796;2023-05-10T16:39:49;100992.00;;;33.03;66.70
74474;BME280;62922;-6.168;106.796;2023-05-10T16:42:15;100989.53;;;33.02;66.99
74474;BME280;62922;-6.168;106.796;2023-05-10T16:44:40;100991.50;;;33.01;66.77
74474;BME280;62922;-6.168;106.796;2023-05-10T16:47:07;100991.88;;;33.00;66.35
74474;BME280;62922;-6.168;106.796;2023-05-10T16:49:35;100999.50;;;32.99;66.33
74474;BME280;62922;-6.168;106.796;2023-05-10T16:52:01;101000.69;;;32.98;66.33
74474;BME280;62922;-6.168;106.796;2023-05-10T16:54:27;100989.69;;;32.97;66.71
74474;BME280;62922;-6.168;106.796;2023-05-10T16:56:53;100986.06;;;32.96;66.27
74474;BME280;62922;-6.168;106.796;2023-05-10T16:59:19;100983.56;;;32.95;66.56
74474;BME280;62922;-6.168;106.796;2023-05-10T17:01:45;100989.22;;;32.95;65.99
74474;BME280;62922;-6.168;106.796;2023-05-10T17:04:12;100977.91;;;32.95;66.43
74474;BME280;62922;-6.168;106.796;2023-05-10T17:06:38;100979.09;;;32.94;65.90
74474;BME280;62922;-6.168;106.796;2023-05-10T17:09:04;100976.25;;;32.94;66.32
74474;BME280;62922;-6.168;106.796;2023-05-10T17:11:31;100975.41;;;32.93;66.32
74474;BME280;62922;-6.168;106.796;2023-05-10T17:13:57;100975.75;;;32.92;65.71
74474;BME280;62922;-6.168;106.796;2023-05-10T17:16:23;100980.56;;;32.91;65.57
74474;BME280;62922;-6.168;106.796;2023-05-10T17:18:49;100975.75;;;32.92;65.78
74474;BME280;62922;-6.168;106.796;2023-05-10T17:21:17;100980.91;;;32.90;66.19
74474;BME280;62922;-6.168;106.796;2023-05-10T17:23:43;100976.44;;;32.89;65.79
74474;BME280;62922;-6.168;106.796;2023-05-10T17:26:09;100967.47;;;32.87;66.14
74474;BME280;62922;-6.168;106.796;2023-05-10T17:28:35;100961.81;;;32.87;65.93
74474;BME280;62922;-6.168;106.796;2023-05-10T17:31:01;100953.69;;;32.85;65.70
74474;BME280;62922;-6.168;106.796;2023-05-10T17:33:27;100955.69;;;32.85;65.49
74474;BME280;62922;-6.168;106.796;2023-05-10T17:35:53;100950.38;;;32.83;65.85
74474;BME280;62922;-6.168;106.796;2023-05-10T17:38:19;100955.19;;;32.83;65.97
74474;BME280;62922;-6.168;106.796;2023-05-10T17:40:45;100947.91;;;32.82;65.94
74474;BME280;62922;-6.168;106.796;2023-05-10T17:43:11;100951.03;;;32.80;65.73
74474;BME280;62922;-6.168;106.796;2023-05-10T17:45:37;100938.94;;;32.80;65.60
74474;BME280;62922;-6.168;106.796;2023-05-10T17:48:03;100940.09;;;32.79;65.19
74474;BME280;62922;-6.168;106.796;2023-05-10T17:50:29;100932.78;;;32.78;65.31
74474;BME280;62922;-6.168;106.796;2023-05-10T17:52:58;100932.78;;;32.78;65.56
74474;BME280;62922;-6.168;106.796;2023-05-10T17:55:23;100927.47;;;32.76;65.19
74474;BME280;62922;-6.168;106.796;2023-05-10T17:57:51;100923.81;;;32.76;65.74
74474;BME280;62922;-6.168;106.796;2023-05-10T18:00:17;100924.97;;;32.75;65.55
74474;BME280;62922;-6.168;106.796;2023-05-10T18:02:43;100917.69;;;32.74;65.63
74474;BME280;62922;-6.168;106.796;2023-05-10T18:05:08;100918.88;;;32.73;65.05
74474;BME280;62922;-6.168;106.796;2023-05-10T18:07:35;100910.72;;;32.71;65.58
74474;BME280;62922;-6.168;106.796;2023-05-10T18:10:01;100897.75;;;32.70;65.42
74474;BME280;62922;-6.168;106.796;2023-05-10T18:12:27;100908.22;;;32.70;65.62
74474;BME280;62922;-6.168;106.796;2023-05-10T18:14:52;100901.75;;;32.69;64.87
74474;BME280;62922;-6.168;106.796;2023-05-10T18:17:18;100901.75;;;32.69;65.39
74474;BME280;62922;-6.168;106.796;2023-05-10T18:19:44;100904.13;;;32.67;65.22
74474;BME280;62922;-6.168;106.796;2023-05-10T18:22:10;100891.97;;;32.67;65.40
74474;BME280;62922;-6.168;106.796;2023-05-10T18:24:36;100890.31;;;32.66;65.34
74474;BME280;62922;-6.168;106.796;2023-05-10T18:27:02;100881.81;;;32.66;64.96
74474;BME280;62922;-6.168;106.796;2023-05-10T18:29:28;100877.72;;;32.63;65.39
74474;BME280;62922;-6.168;106.796;2023-05-10T18:31:56;100862.75;;;32.63;65.35
74474;BME280;62922;-6.168;106.796;2023-05-10T18:34:22;100875.69;;;32.64;64.86
74474;BME280;62922;-6.168;106.796;2023-05-10T18:36:48;100876.03;;;32.62;64.99
74474;BME280;62922;-6.168;106.796;2023-05-10T18:39:14;100871.56;;;32.61;65.34
74474;BME280;62922;-6.168;106.796;2023-05-10T18:41:42;100861.09;;;32.62;64.88
74474;BME280;62922;-6.168;106.796;2023-05-10T18:44:10;100865.06;;;32.61;64.61
74474;BME280;62922;-6.168;106.796;2023-05-10T18:46:36;100858.59;;;32.60;64.92
74474;BME280;62922;-6.168;106.796;2023-05-10T18:49:02;100867.06;;;32.60;64.57
74474;BME280;62922;-6.168;106.796;2023-05-10T18:51:28;100854.13;;;32.59;65.12
74474;BME280;62922;-6.168;106.796;2023-05-10T18:53:56;100861.75;;;32.58;64.51
74474;BME280;62922;-6.168;106.796;2023-05-10T18:56:22;100862.94;;;32.58;64.99
74474;BME280;62922;-6.168;106.796;2023-05-10T18:58:48;100864.09;;;32.56;65.02
74474;BME280;62922;-6.168;106.796;2023-05-10T19:01:14;100871.78;;;32.56;64.44
74474;BME280;62922;-6.168;106.796;2023-05-10T19:03:40;100862.47;;;32.55;65.04
74474;BME280;62922;-6.168;106.796;2023-05-10T19:06:06;100866.44;;;32.54;64.93
74474;BME280;62922;-6.168;106.796;2023-05-10T19:08:32;100862.81;;;32.54;64.88
74474;BME280;62922;-6.168;106.796;2023-05-10T19:10:58;100863.97;;;32.53;64.42
74474;BME280;62922;-6.168;106.796;2023-05-10T19:13:24;100863.97;;;32.53;64.86
74474;BME280;62922;-6.168;106.796;2023-05-10T19:18:20;100862.69;;;32.50;64.38
74474;BME280;62922;-6.168;106.796;2023-05-10T19:20:46;100867.50;;;32.50;64.83
74474;BME280;62922;-6.168;106.796;2023-05-10T19:23:12;100856.53;;;32.48;65.03
74474;BME280;62922;-6.168;106.796;2023-05-10T19:25:38;100856.03;;;32.46;65.05
74474;BME280;62922;-6.168;106.796;2023-05-10T19:28:06;100866.50;;;32.46;65.25
74474;BME280;62922;-6.168;106.796;2023-05-10T19:30:32;100860.38;;;32.44;65.43
74474;BME280;62922;-6.168;106.796;2023-05-10T19:32:58;100854.72;;;32.44;64.85
74474;BME280;62922;-6.168;106.796;2023-05-10T19:35:24;100855.06;;;32.42;65.79
74474;BME280;62922;-6.168;106.796;2023-05-10T19:37:50;100844.09;;;32.41;65.10
74474;BME280;62922;-6.168;106.796;2023-05-10T19:40:18;100844.94;;;32.41;65.10
74474;BME280;62922;-6.168;106.796;2023-05-10T19:42:44;100841.63;;;32.39;65.33
74474;BME280;62922;-6.168;106.796;2023-05-10T19:45:10;100854.91;;;32.39;65.33
74474;BME280;62922;-6.168;106.796;2023-05-10T19:47:38;100848.41;;;32.38;65.39
74474;BME280;62922;-6.168;106.796;2023-05-10T19:50:06;100858.06;;;32.37;65.32
74474;BME280;62922;-6.168;106.796;2023-05-10T19:52:32;100864.88;;;32.36;65.48
74474;BME280;62922;-6.168;106.796;2023-05-10T19:54:58;100861.25;;;32.36;65.55
74474;BME280;62922;-6.168;106.796;2023-05-10T19:57:27;100868.53;;;32.37;65.13
74474;BME280;62922;-6.168;106.796;2023-05-10T19:59:52;100868.88;;;32.35;65.66
74474;BME280;62922;-6.168;106.796;2023-05-10T20:02:18;100858.75;;;32.34;64.95
74474;BME280;62922;-6.168;106.796;2023-05-10T20:04:44;100855.91;;;32.34;65.40
74474;BME280;62922;-6.168;106.796;2023-05-10T20:07:10;100851.78;;;32.32;65.11
74474;BME280;62922;-6.168;106.796;2023-05-10T20:09:36;100846.50;;;32.30;64.97
74474;BME280;62922;-6.168;106.796;2023-05-10T20:12:02;100849.63;;;32.29;64.57
74474;BME280;62922;-6.168;106.796;2023-05-10T20:14:28;100850.47;;;32.29;65.00
74474;BME280;62922;-6.168;106.796;2023-05-10T20:16:54;100846.81;;;32.29;64.93
74474;BME280;62922;-6.168;106.796;2023-05-10T20:19:20;100848.81;;;32.28;64.94
74474;BME280;62922;-6.168;106.796;2023-05-10T20:21:46;100856.47;;;32.28;64.46
74474;BME280;62922;-6.168;106.796;2023-05-10T20:24:12;100863.25;;;32.27;64.64
74474;BME280;62922;-6.168;106.796;2023-05-10T20:26:40;100868.09;;;32.26;64.32
74474;BME280;62922;-6.168;106.796;2023-05-10T20:29:06;100869.25;;;32.25;64.81
74474;BME280;62922;-6.168;106.796;2023-05-10T20:31:33;100871.28;;;32.25;64.90
74474;BME280;62922;-6.168;106.796;2023-05-10T20:33:59;100871.28;;;32.25;64.39
74474;BME280;62922;-6.168;106.796;2023-05-10T20:36:25;100870.44;;;32.24;65.00
74474;BME280;62922;-6.168;106.796;2023-05-10T20:38:51;100869.94;;;32.22;64.89
74474;BME280;62922;-6.168;106.796;2023-05-10T20:41:17;100880.91;;;32.24;64.60
74474;BME280;62922;-6.168;106.796;2023-05-10T20:43:43;100872.78;;;32.22;64.50
74474;BME280;62922;-6.168;106.796;2023-05-10T20:46:08;100876.44;;;32.23;65.01
74474;BME280;62922;-6.168;106.796;2023-05-10T20:48:34;100876.78;;;32.21;64.90
74474;BME280;62922;-6.168;106.796;2023-05-10T20:51:00;100882.44;;;32.21;64.93
74474;BME280;62922;-6.168;106.796;2023-05-10T20:53:27;100874.28;;;32.20;64.69
74474;BME280;62922;-6.168;106.796;2023-05-10T20:55:52;100882.75;;;32.20;64.93
74474;BME280;62922;-6.168;106.796;2023-05-10T20:58:18;100882.75;;;32.20;64.98
74474;BME280;62922;-6.168;106.796;2023-05-10T21:00:44;100892.06;;;32.20;64.97
74474;BME280;62922;-6.168;106.796;2023-05-10T21:03:10;100892.41;;;32.19;64.49
74474;BME280;62922;-6.168;106.796;2023-05-10T21:05:36;100898.03;;;32.19;65.09
74474;BME280;62922;-6.168;106.796;2023-05-10T21:08:02;100905.69;;;32.18;64.74
74474;BME280;62922;-6.168;106.796;2023-05-10T21:10:28;100911.66;;;32.17;65.00
74474;BME280;62922;-6.168;106.796;2023-05-10T21:12:54;100915.69;;;32.16;65.00
74474;BME280;62922;-6.168;106.796;2023-05-10T21:15:20;100906.03;;;32.17;65.01
74474;BME280;62922;-6.168;106.796;2023-05-10T21:17:49;100916.47;;;32.16;64.62
74474;BME280;62922;-6.168;106.796;2023-05-10T21:20:18;100903.53;;;32.15;64.91
74474;BME280;62922;-6.168;106.796;2023-05-10T21:22:44;100902.72;;;32.15;64.57
74474;BME280;62922;-6.168;106.796;2023-05-10T21:25:10;100916.00;;;32.14;65.13
74474;BME280;62922;-6.168;106.796;2023-05-10T21:27:36;100921.63;;;32.14;64.69
74474;BME280;62922;-6.168;106.796;2023-05-10T21:30:02;100918.00;;;32.14;64.85
74474;BME280;62922;-6.168;106.796;2023-05-10T21:32:28;100918.81;;;32.14;64.63
74474;BME280;62922;-6.168;106.796;2023-05-10T21:34:54;100912.34;;;32.14;64.98
74474;BME280;62922;-6.168;106.796;2023-05-10T21:37:19;100915.50;;;32.12;64.77
74474;BME280;62922;-6.168;106.796;2023-05-10T21:39:45;100920.00;;;32.13;64.98
74474;BME280;62922;-6.168;106.796;2023-05-10T21:42:11;100917.50;;;32.12;65.28
74474;BME280;62922;-6.168;106.796;2023-05-10T21:44:39;100923.16;;;32.12;65.01
74474;BME280;62922;-6.168;106.796;2023-05-10T21:47:05;100921.50;;;32.11;64.85
74474;BME280;62922;-6.168;106.796;2023-05-10T21:49:31;100920.69;;;32.10;64.86
74474;BME280;62922;-6.168;106.796;2023-05-10T21:51:57;100923.16;;;32.12;64.98
74474;BME280;62922;-6.168;106.796;2023-05-10T21:54:23;100923.16;;;32.12;64.97
74474;BME280;62922;-6.168;106.796;2023-05-10T21:56:49;100924.81;;;32.13;65.12
74474;BME280;62922;-6.168;106.796;2023-05-10T21:59:14;100927.97;;;32.11;64.67
74474;BME280;62922;-6.168;106.796;2023-05-10T22:01:42;100926.00;;;32.12;65.05
74474;BME280;62922;-6.168;106.796;2023-05-10T22:04:08;100923.50;;;32.10;64.56
74474;BME280;62922;-6.168;106.796;2023-05-10T22:06:36;100916.69;;;32.11;64.66
74474;BME280;62922;-6.168;106.796;2023-05-10T22:09:02;100919.50;;;32.11;65.11
74474;BME280;62922;-6.168;106.796;2023-05-10T22:11:29;100919.00;;;32.09;65.09
74474;BME280;62922;-6.168;106.796;2023-05-10T22:13:55;100916.19;;;32.09;64.50
74474;BME280;62922;-6.168;106.796;2023-05-10T22:16:21;100919.84;;;32.10;64.50
74474;BME280;62922;-6.168;106.796;2023-05-10T22:18:47;100911.72;;;32.08;64.96
74474;BME280;62922;-6.168;106.796;2023-05-10T22:21:13;100916.19;;;32.09;64.97
74474;BME280;62922;-6.168;106.796;2023-05-10T22:23:39;100911.72;;;32.08;65.04
74474;BME280;62922;-6.168;106.796;2023-05-10T22:26:07;100911.38;;;32.10;65.05
74474;BME280;62922;-6.168;106.796;2023-05-10T22:28:33;100909.69;;;32.17;64.30
74474;BME280;62922;-6.168;106.796;2023-05-10T22:30:58;100910.66;;;32.21;64.10
74474;BME280;62922;-6.168;106.796;2023-05-10T22:33:24;100912.31;;;32.22;64.55
74474;BME280;62922;-6.168;106.796;2023-05-10T22:35:50;100908.84;;;32.17;64.30
74474;BME280;62922;-6.168;106.796;2023-05-10T22:38:16;100914.19;;;32.10;64.98
74474;BME280;62922;-6.168;106.796;2023-05-10T22:40:42;100909.22;;;32.07;64.47
74474;BME280;62922;-6.168;106.796;2023-05-10T22:43:08;100912.38;;;32.05;65.16
74474;BME280;62922;-6.168;106.796;2023-05-10T22:45:34;100908.75;;;32.05;64.75
74474;BME280;62922;-6.168;106.796;2023-05-10T22:48:00;100920.84;;;32.05;64.76